createdAt,value
2019-04-11T00:00:33.400Z,5.89
2019-04-11T00:01:39.462Z,5.88
2019-04-11T00:02:34.371Z,5.87
2019-04-11T00:03:33.571Z,5.87
2019-04-11T00:04:34.387Z,5.87
2019-04-11T00:05:33.338Z,5.86
2019-04-11T00:06:33.829Z,5.85
2019-04-11T00:07:33.312Z,5.86
2019-04-11T00:08:34.185Z,5.84
2019-04-11T00:09:34.442Z,5.83
2019-04-11T00:10:33.416Z,5.82
2019-04-11T00:11:33.599Z,5.82
2019-04-11T00:12:33.270Z,5.81
2019-04-11T00:13:35.186Z,5.80
2019-04-11T00:14:33.239Z,5.80
2019-04-11T00:15:33.227Z,5.81
2019-04-11T00:16:33.216Z,5.80
2019-04-11T00:17:34.195Z,5.79
2019-04-11T00:18:33.205Z,5.79
2019-04-11T00:19:33.645Z,5.78
2019-04-11T00:20:33.871Z,5.76
2019-04-11T00:21:33.163Z,5.76
2019-04-11T00:22:33.346Z,5.75
2019-04-11T00:23:34.156Z,5.74
2019-04-11T00:24:33.139Z,5.74
2019-04-11T00:25:33.756Z,5.74
2019-04-11T00:26:33.107Z,5.73
2019-04-11T00:27:33.096Z,5.72
2019-04-11T00:28:34.030Z,5.72
2019-04-11T00:29:33.077Z,5.71
2019-04-11T00:30:33.077Z,5.72
2019-04-11T00:31:33.054Z,5.72
2019-04-11T00:32:33.767Z,5.72
2019-04-11T00:33:33.988Z,5.72
2019-04-11T00:34:33.137Z,5.71
2019-04-11T00:35:33.597Z,5.71
2019-04-11T00:36:33.008Z,5.72
2019-04-11T00:37:32.989Z,5.70
2019-04-11T00:38:34.111Z,5.70
2019-04-11T00:39:32.967Z,5.70
2019-04-11T00:40:33.288Z,5.69
2019-04-11T00:41:34.208Z,5.69
2019-04-11T00:42:32.952Z,5.68
2019-04-11T00:43:37.632Z,5.68
2019-04-11T00:44:34.741Z,5.66
2019-04-11T00:45:33.809Z,5.67
2019-04-11T00:46:32.892Z,5.66
2019-04-11T00:47:33.191Z,5.67
2019-04-11T00:48:33.502Z,5.67
2019-04-11T00:49:32.859Z,5.67
2019-04-11T00:50:32.848Z,5.68
2019-04-11T00:51:33.863Z,5.66
2019-04-11T00:52:33.628Z,5.65
2019-04-11T00:53:33.993Z,5.65
2019-04-11T00:54:33.168Z,5.63
2019-04-11T00:55:32.796Z,5.65
2019-04-11T00:56:32.785Z,5.63
2019-04-11T00:57:32.825Z,5.63
2019-04-11T00:58:33.860Z,5.62
2019-04-11T00:59:32.751Z,5.61
2019-04-11T01:00:33.354Z,5.61
2019-04-11T01:01:33.674Z,5.61
2019-04-11T01:02:33.657Z,5.59
2019-04-11T01:03:33.825Z,5.59
2019-04-11T01:04:32.804Z,5.58
2019-04-11T01:05:33.817Z,5.59
2019-04-11T01:06:32.690Z,5.58
2019-04-11T01:07:33.173Z,5.58
2019-04-11T01:08:32.656Z,5.58
2019-04-11T01:09:32.731Z,5.57
2019-04-11T01:10:32.632Z,5.57
2019-04-11T01:11:32.621Z,5.56
2019-04-11T01:12:32.623Z,5.55
2019-04-11T01:13:42.508Z,5.53
2019-04-11T01:14:34.196Z,5.53
2019-04-11T01:15:32.582Z,5.51
2019-04-11T01:16:32.652Z,5.52
2019-04-11T01:17:33.593Z,5.51
2019-04-11T01:18:32.559Z,5.50
2019-04-11T01:19:33.019Z,5.50
2019-04-11T01:20:32.525Z,5.49
2019-04-11T01:21:32.820Z,5.50
2019-04-11T01:22:32.504Z,5.46
2019-04-11T01:23:33.238Z,5.47
2019-04-11T01:24:33.616Z,5.46
2019-04-11T01:25:32.702Z,5.44
2019-04-11T01:26:33.004Z,5.44
2019-04-11T01:27:32.448Z,5.43
2019-04-11T01:28:32.448Z,5.41
2019-04-11T01:29:33.463Z,5.41
2019-04-11T01:30:33.303Z,5.39
2019-04-11T01:31:32.421Z,5.38
2019-04-11T01:32:32.594Z,5.39
2019-04-11T01:33:32.404Z,5.37
2019-04-11T01:34:32.926Z,5.36
2019-04-11T01:35:33.197Z,5.35
2019-04-11T01:36:33.223Z,5.35
2019-04-11T01:37:33.452Z,5.34
2019-04-11T01:38:32.531Z,5.33
2019-04-11T01:39:32.793Z,5.33
2019-04-11T01:40:32.324Z,5.32
2019-04-11T01:41:32.300Z,5.29
2019-04-11T01:42:33.370Z,5.29
2019-04-11T01:43:32.504Z,5.27
2019-04-11T01:44:32.541Z,5.27
2019-04-11T01:45:32.272Z,5.25
2019-04-11T01:46:32.255Z,5.25
2019-04-11T01:47:32.976Z,5.22
2019-04-11T01:48:33.319Z,5.21
2019-04-11T01:49:32.400Z,5.20
2019-04-11T01:50:32.871Z,5.18
2019-04-11T01:51:32.196Z,5.18
2019-04-11T01:52:32.182Z,5.17
2019-04-11T01:53:33.143Z,5.15
2019-04-11T01:54:32.251Z,5.15
2019-04-11T01:55:32.576Z,5.13
2019-04-11T01:56:32.142Z,5.12
2019-04-11T01:57:32.132Z,5.11
2019-04-11T01:58:32.975Z,5.10
2019-04-11T01:59:32.295Z,5.08
2019-04-11T02:00:32.306Z,5.07
2019-04-11T02:01:32.673Z,5.07
2019-04-11T02:02:32.700Z,5.05
2019-04-11T02:03:33.099Z,5.06
2019-04-11T02:04:32.126Z,5.06
2019-04-11T02:05:32.811Z,5.05
2019-04-11T02:06:32.075Z,5.04
2019-04-11T02:07:32.025Z,5.01
2019-04-11T02:08:32.015Z,5.01
2019-04-11T02:09:32.444Z,5.00
2019-04-11T02:10:32.882Z,4.98
2019-04-11T02:11:31.983Z,4.99
2019-04-11T02:12:32.028Z,4.98
2019-04-11T02:13:32.195Z,4.96
2019-04-11T02:14:31.952Z,4.96
2019-04-11T02:15:32.412Z,4.95
2019-04-11T02:16:32.748Z,4.94
2019-04-11T02:17:32.855Z,4.93
2019-04-11T02:18:31.921Z,4.92
2019-04-11T02:19:32.194Z,4.92
2019-04-11T02:20:31.889Z,4.91
2019-04-11T02:21:31.880Z,4.92
2019-04-11T02:22:32.748Z,4.90
2019-04-11T02:23:32.018Z,4.88
2019-04-11T02:24:32.107Z,4.88
2019-04-11T02:25:32.349Z,4.87
2019-04-11T02:26:31.826Z,4.87
2019-04-11T02:27:32.701Z,4.86
2019-04-11T02:28:32.826Z,4.85
2019-04-11T02:29:31.793Z,4.83
2019-04-11T02:30:31.794Z,4.84
2019-04-11T02:31:32.603Z,4.82
2019-04-11T02:32:32.042Z,4.82
2019-04-11T02:33:32.934Z,4.80
2019-04-11T02:34:31.755Z,4.79
2019-04-11T02:35:31.766Z,4.78
2019-04-11T02:36:33.744Z,4.79
2019-04-11T02:37:33.468Z,4.78
2019-04-11T02:38:32.640Z,4.76
2019-04-11T02:39:33.795Z,4.76
2019-04-11T02:40:32.699Z,4.75
2019-04-11T02:41:33.506Z,4.74
2019-04-11T02:42:33.015Z,4.75
2019-04-11T02:43:32.089Z,4.74
2019-04-11T02:44:46.076Z,4.71
2019-04-11T02:45:45.200Z,4.72
2019-04-11T02:46:42.451Z,4.70
2019-04-11T02:47:35.153Z,4.70
2019-04-11T02:48:33.008Z,4.70
2019-04-11T02:49:32.929Z,4.69
2019-04-11T02:50:32.134Z,4.70
2019-04-11T02:51:31.562Z,4.69
2019-04-11T02:52:33.186Z,4.68
2019-04-11T02:53:32.724Z,4.68
2019-04-11T02:54:33.536Z,4.65
2019-04-11T02:55:31.717Z,4.65
2019-04-11T02:56:33.457Z,4.64
2019-04-11T02:57:32.217Z,4.63
2019-04-11T02:58:31.875Z,4.64
2019-04-11T02:59:31.491Z,4.62
2019-04-11T03:00:33.088Z,4.62
2019-04-11T03:01:31.941Z,4.60
2019-04-11T03:02:32.702Z,4.61
2019-04-11T03:03:31.993Z,4.60
2019-04-11T03:04:31.671Z,4.61
2019-04-11T03:05:34.510Z,4.59
2019-04-11T03:06:33.259Z,4.60
2019-04-11T03:07:31.975Z,4.58
2019-04-11T03:08:34.108Z,4.59
2019-04-11T03:09:31.806Z,4.58
2019-04-11T03:10:33.504Z,4.59
2019-04-11T03:11:32.518Z,4.58
2019-04-11T03:12:31.968Z,4.56
2019-04-11T03:13:33.200Z,4.56
2019-04-11T03:14:46.252Z,4.55
2019-04-11T03:15:48.329Z,4.54
2019-04-11T03:16:42.675Z,4.53
2019-04-11T03:17:36.870Z,4.52
2019-04-11T03:18:52.872Z,4.52
2019-04-11T03:19:44.182Z,4.51
2019-04-11T03:20:39.243Z,4.51
2019-04-11T03:21:36.687Z,4.52
2019-04-11T03:22:32.693Z,4.50
2019-04-11T03:23:31.703Z,4.49
2019-04-11T03:24:33.250Z,4.48
2019-04-11T03:25:33.011Z,4.47
2019-04-11T03:26:31.261Z,4.48
2019-04-11T03:27:32.529Z,4.46
2019-04-11T03:28:33.046Z,4.46
2019-04-11T03:29:33.331Z,4.45
2019-04-11T03:30:46.510Z,4.43
2019-04-11T03:32:13.954Z,4.43
2019-04-11T03:33:18.286Z,4.42
2019-04-11T03:36:28.375Z,4.40
2019-04-11T03:37:55.210Z,4.40
2019-04-11T03:38:58.773Z,4.39
2019-04-11T03:39:53.864Z,4.38
2019-04-11T03:40:52.024Z,4.36
2019-04-11T03:41:51.846Z,4.36
2019-04-11T03:42:43.336Z,4.35
2019-04-11T03:43:42.021Z,4.34
2019-04-11T03:44:39.528Z,4.33
2019-04-11T03:45:47.922Z,4.33
2019-04-11T03:46:48.199Z,4.32
2019-04-11T03:47:47.594Z,4.32
2019-04-11T03:48:43.743Z,4.31
2019-04-11T03:49:43.255Z,4.32
2019-04-11T03:50:32.888Z,4.30
2019-04-11T03:51:31.267Z,4.30
2019-04-11T03:52:32.629Z,4.29
2019-04-11T03:53:32.483Z,4.28
2019-04-11T03:54:31.822Z,4.29
2019-04-11T03:55:32.454Z,4.27
2019-04-11T03:56:30.874Z,4.27
2019-04-11T03:57:31.867Z,4.26
2019-04-11T03:58:31.242Z,4.24
2019-04-11T03:59:31.442Z,4.24
2019-04-11T04:00:35.944Z,4.22
2019-04-11T04:01:32.576Z,4.22
2019-04-11T04:02:32.335Z,4.21
2019-04-11T04:03:31.107Z,4.20
2019-04-11T04:04:30.788Z,4.20
2019-04-11T04:05:36.187Z,4.18
2019-04-11T04:06:33.031Z,4.17
2019-04-11T04:07:31.967Z,4.17
2019-04-11T04:08:31.449Z,4.16
2019-04-11T04:09:30.745Z,4.17
2019-04-11T04:10:31.792Z,4.16
2019-04-11T04:11:32.641Z,4.14
2019-04-11T04:12:31.437Z,4.13
2019-04-11T04:13:31.935Z,4.13
2019-04-11T04:14:32.448Z,4.11
2019-04-11T04:15:41.033Z,4.13
2019-04-11T04:16:40.148Z,4.10
2019-04-11T04:17:32.956Z,4.10
2019-04-11T04:18:31.777Z,4.10
2019-04-11T04:19:32.686Z,4.09
2019-04-11T04:20:30.728Z,4.08
2019-04-11T04:21:31.152Z,4.07
2019-04-11T04:22:31.477Z,4.07
2019-04-11T04:23:31.458Z,4.06
2019-04-11T04:24:34.806Z,4.06
2019-04-11T04:25:32.515Z,4.06
2019-04-11T04:26:31.317Z,4.04
2019-04-11T04:27:32.195Z,4.04
2019-04-11T04:28:31.745Z,4.03
2019-04-11T04:29:32.317Z,4.02
2019-04-11T04:30:30.513Z,4.02
2019-04-11T04:31:30.777Z,4.00
2019-04-11T04:32:32.294Z,4.01
2019-04-11T04:33:31.458Z,4.00
2019-04-11T04:34:31.608Z,3.98
2019-04-11T04:35:31.684Z,3.97
2019-04-11T04:36:30.911Z,3.98
2019-04-11T04:37:31.971Z,3.96
2019-04-11T04:38:31.561Z,3.96
2019-04-11T04:39:31.365Z,3.96
2019-04-11T04:40:47.964Z,3.96
2019-04-11T04:41:39.266Z,3.95
2019-04-11T04:42:37.051Z,3.95
2019-04-11T04:43:32.191Z,3.95
2019-04-11T04:44:31.717Z,3.96
2019-04-11T04:45:49.732Z,3.96
2019-04-11T04:46:47.345Z,3.95
2019-04-11T04:47:39.507Z,3.96
2019-04-11T04:48:32.362Z,3.96
2019-04-11T04:49:32.213Z,3.96
2019-04-11T04:50:30.931Z,3.96
2019-04-11T04:51:31.170Z,3.98
2019-04-11T04:52:31.889Z,3.98
2019-04-11T04:53:30.980Z,3.99
2019-04-11T04:54:30.817Z,4.00
2019-04-11T04:55:30.504Z,4.00
2019-04-11T04:56:32.216Z,4.03
2019-04-11T04:57:31.756Z,4.03
2019-04-11T04:58:31.677Z,4.04
2019-04-11T04:59:31.836Z,4.05
2019-04-11T05:00:32.005Z,4.06
2019-04-11T05:01:31.566Z,4.07
2019-04-11T05:02:30.963Z,4.08
2019-04-11T05:03:31.840Z,4.09
2019-04-11T05:04:31.690Z,4.11
2019-04-11T05:05:31.047Z,4.12
2019-04-11T05:06:30.123Z,4.13
2019-04-11T05:07:34.145Z,4.14
2019-04-11T05:08:32.552Z,4.16
2019-04-11T05:09:30.092Z,4.17
2019-04-11T05:10:30.694Z,4.19
2019-04-11T05:11:30.566Z,4.21
2019-04-11T05:12:30.354Z,4.21
2019-04-11T05:13:30.295Z,4.23
2019-04-11T05:14:31.434Z,4.25
2019-04-11T05:15:30.159Z,4.28
2019-04-11T05:16:30.033Z,4.31
2019-04-11T05:17:30.007Z,4.33
2019-04-11T05:18:29.997Z,4.35
2019-04-11T05:19:30.062Z,4.35
2019-04-11T05:20:30.212Z,4.38
2019-04-11T05:21:29.960Z,4.40
2019-04-11T05:22:30.978Z,4.42
2019-04-11T05:23:29.943Z,4.43
2019-04-11T05:24:30.481Z,4.46
2019-04-11T05:25:30.629Z,4.51
2019-04-11T05:26:29.919Z,4.60
2019-04-11T05:27:29.896Z,4.72
2019-04-11T05:28:29.885Z,4.84
2019-04-11T05:29:29.874Z,4.97
2019-04-11T05:30:29.864Z,5.13
2019-04-11T05:31:30.325Z,5.31
2019-04-11T05:32:29.852Z,5.54
2019-04-11T05:33:29.839Z,5.76
2019-04-11T05:34:29.820Z,6.04
2019-04-11T05:35:29.951Z,6.30
2019-04-11T05:36:30.417Z,6.56
2019-04-11T05:37:29.790Z,6.82
2019-04-11T05:38:29.792Z,7.13
2019-04-11T05:39:29.769Z,7.50
2019-04-11T05:40:30.104Z,7.85
2019-04-11T05:41:29.747Z,8.22
2019-04-11T05:42:29.735Z,8.56
2019-04-11T05:43:35.902Z,8.88
2019-04-11T05:44:30.724Z,9.16
2019-04-11T05:45:29.703Z,9.42
2019-04-11T05:46:35.352Z,9.73
2019-04-11T05:47:31.719Z,10.07
2019-04-11T05:48:30.539Z,10.42
2019-04-11T05:49:35.137Z,10.79
2019-04-11T05:50:31.929Z,11.08
2019-04-11T05:51:36.875Z,11.23
2019-04-11T05:52:32.224Z,11.33
2019-04-11T05:53:32.747Z,11.33
2019-04-11T05:54:29.607Z,10.90
2019-04-11T05:55:30.169Z,10.45
2019-04-11T05:56:29.932Z,10.07
2019-04-11T05:57:35.299Z,9.84
2019-04-11T05:58:30.563Z,9.59
2019-04-11T05:59:30.611Z,9.32
2019-04-11T06:00:30.492Z,9.17
2019-04-11T06:01:30.741Z,9.43
2019-04-11T06:02:29.543Z,9.90
2019-04-11T06:03:30.254Z,10.10
2019-04-11T06:04:30.243Z,9.71
2019-04-11T06:05:32.405Z,9.42
2019-04-11T06:06:36.078Z,9.21
2019-04-11T06:07:30.477Z,9.17
2019-04-11T06:08:30.792Z,9.37
2019-04-11T06:09:32.963Z,9.89
2019-04-11T06:10:30.433Z,10.42
2019-04-11T06:11:30.538Z,11.10
2019-04-11T06:12:29.656Z,11.23
2019-04-11T06:13:29.410Z,10.93
2019-04-11T06:14:29.388Z,10.76
2019-04-11T06:15:29.377Z,10.99
2019-04-11T06:16:37.020Z,11.45
2019-04-11T06:17:30.357Z,11.27
2019-04-11T06:18:33.018Z,11.19
2019-04-11T06:19:30.580Z,11.16
2019-04-11T06:20:29.331Z,11.35
2019-04-11T06:21:29.313Z,11.61
2019-04-11T06:22:29.723Z,12.21
2019-04-11T06:23:29.616Z,13.15
2019-04-11T06:24:29.286Z,13.96
2019-04-11T06:25:30.882Z,14.66
2019-04-11T06:26:30.411Z,15.26
2019-04-11T06:27:30.375Z,15.49
2019-04-11T06:28:30.637Z,14.83
2019-04-11T06:29:29.920Z,14.20
2019-04-11T06:30:30.409Z,13.86
2019-04-11T06:31:29.821Z,14.38
2019-04-11T06:32:29.910Z,14.97
2019-04-11T06:33:29.188Z,14.87
2019-04-11T06:34:30.325Z,14.26
2019-04-11T06:35:30.245Z,13.93
2019-04-11T06:36:30.109Z,14.25
2019-04-11T06:37:29.796Z,15.04
2019-04-11T06:38:30.275Z,15.68
2019-04-11T06:39:29.471Z,16.20
2019-04-11T06:40:29.267Z,16.61
2019-04-11T06:41:29.102Z,17.01
2019-04-11T06:42:30.185Z,17.27
2019-04-11T06:43:29.088Z,17.64
2019-04-11T06:44:30.052Z,17.64
2019-04-11T06:45:29.390Z,17.80
2019-04-11T06:46:29.305Z,18.24
2019-04-11T06:47:29.238Z,18.65
2019-04-11T06:48:29.682Z,19.01
2019-04-11T06:49:29.027Z,19.32
2019-04-11T06:50:29.151Z,19.51
2019-04-11T06:51:30.203Z,19.61
2019-04-11T06:52:28.985Z,19.70
2019-04-11T06:53:30.087Z,19.78
2019-04-11T06:54:28.960Z,19.84
2019-04-11T06:55:29.061Z,19.91
2019-04-11T06:56:29.362Z,19.94
2019-04-11T06:57:30.010Z,20.02
2019-04-11T06:58:29.710Z,20.14
2019-04-11T06:59:29.131Z,20.23
2019-04-11T07:00:29.303Z,20.31
2019-04-11T07:01:29.961Z,20.47
2019-04-11T07:02:29.894Z,20.64
2019-04-11T07:03:30.438Z,20.82
2019-04-11T07:04:29.464Z,20.98
2019-04-11T07:05:29.029Z,21.04
2019-04-11T07:06:29.413Z,21.12
2019-04-11T07:07:30.513Z,21.14
2019-04-11T07:08:29.974Z,21.17
2019-04-11T07:09:28.830Z,21.19
2019-04-11T07:10:28.786Z,21.21
2019-04-11T07:11:28.792Z,21.26
2019-04-11T07:12:28.764Z,21.33
2019-04-11T07:13:28.767Z,21.41
2019-04-11T07:14:29.163Z,21.53
2019-04-11T07:15:29.404Z,21.70
2019-04-11T07:16:29.659Z,21.81
2019-04-11T07:17:29.652Z,21.93
2019-04-11T07:18:29.103Z,22.00
2019-04-11T07:19:28.746Z,22.08
2019-04-11T07:20:29.304Z,22.17
2019-04-11T07:21:28.666Z,22.32
2019-04-11T07:22:28.656Z,22.48
2019-04-11T07:23:28.649Z,22.60
2019-04-11T07:24:28.635Z,22.77
2019-04-11T07:25:28.949Z,22.93
2019-04-11T07:26:29.456Z,23.07
2019-04-11T07:27:28.603Z,23.25
2019-04-11T07:28:29.471Z,23.43
2019-04-11T07:29:29.233Z,23.60
2019-04-11T07:30:28.931Z,23.76
2019-04-11T07:31:29.871Z,23.93
2019-04-11T07:32:29.774Z,24.17
2019-04-11T07:33:28.932Z,24.40
2019-04-11T07:34:32.744Z,24.58
2019-04-11T07:35:29.515Z,24.75
2019-04-11T07:36:29.574Z,24.92
2019-04-11T07:37:28.503Z,25.05
2019-04-11T07:38:29.409Z,25.15
2019-04-11T07:39:28.933Z,25.29
2019-04-11T07:40:29.341Z,25.51
2019-04-11T07:41:29.738Z,25.79
2019-04-11T07:42:28.442Z,26.00
2019-04-11T07:43:29.220Z,26.13
2019-04-11T07:44:30.163Z,26.22
2019-04-11T07:45:28.406Z,26.31
2019-04-11T07:46:28.962Z,26.40
2019-04-11T07:47:29.480Z,26.48
2019-04-11T07:48:29.210Z,26.55
2019-04-11T07:49:28.582Z,26.64
2019-04-11T07:50:28.350Z,26.75
2019-04-11T07:51:28.539Z,26.86
2019-04-11T07:52:31.362Z,26.95
2019-04-11T07:53:28.603Z,27.03
2019-04-11T07:54:28.309Z,27.08
2019-04-11T07:55:28.308Z,27.16
2019-04-11T07:56:29.420Z,27.22
2019-04-11T07:57:28.493Z,27.25
2019-04-11T07:58:28.620Z,27.30
2019-04-11T07:59:29.481Z,27.39
2019-04-11T08:00:38.857Z,27.48
2019-04-11T08:01:29.465Z,27.59
2019-04-11T08:02:29.036Z,27.70
2019-04-11T08:03:28.213Z,27.82
2019-04-11T08:04:28.238Z,27.92
2019-04-11T08:05:28.192Z,28.03
2019-04-11T08:06:28.828Z,28.13
2019-04-11T08:07:28.249Z,28.22
2019-04-11T08:08:28.157Z,28.31
2019-04-11T08:09:29.011Z,28.36
2019-04-11T08:10:29.358Z,28.39
2019-04-11T08:11:28.126Z,28.47
2019-04-11T08:12:28.115Z,28.56
2019-04-11T08:13:28.381Z,28.66
2019-04-11T08:14:28.690Z,28.71
2019-04-11T08:15:29.298Z,28.79
2019-04-11T08:16:28.950Z,28.84
2019-04-11T08:17:37.059Z,28.85
2019-04-11T08:18:29.060Z,28.85
2019-04-11T08:19:28.876Z,28.89
2019-04-11T08:20:29.091Z,29.00
2019-04-11T08:21:28.283Z,29.11
2019-04-11T08:22:28.010Z,29.11
2019-04-11T08:23:27.996Z,29.09
2019-04-11T08:24:28.879Z,29.09
2019-04-11T08:25:29.226Z,29.20
2019-04-11T08:26:28.306Z,29.30
2019-04-11T08:27:27.952Z,29.35
2019-04-11T08:28:28.964Z,29.38
2019-04-11T08:29:28.632Z,29.38
2019-04-11T08:30:27.926Z,29.38
2019-04-11T08:31:28.831Z,29.35
2019-04-11T08:32:27.895Z,29.27
2019-04-11T08:33:28.800Z,29.13
2019-04-11T08:34:29.090Z,28.99
2019-04-11T08:35:28.356Z,28.90
2019-04-11T08:36:27.859Z,28.85
2019-04-11T08:37:27.838Z,28.80
2019-04-11T08:38:28.778Z,28.73
2019-04-11T08:39:29.006Z,28.55
2019-04-11T08:40:28.132Z,28.32
2019-04-11T08:41:27.798Z,28.16
2019-04-11T08:42:27.792Z,28.00
2019-04-11T08:43:28.933Z,27.91
2019-04-11T08:44:28.059Z,27.90
2019-04-11T08:45:27.749Z,27.90
2019-04-11T08:46:28.879Z,27.85
2019-04-11T08:47:40.154Z,27.79
2019-04-11T08:48:28.924Z,27.73
2019-04-11T08:49:29.943Z,27.62
2019-04-11T08:50:28.284Z,27.46
2019-04-11T08:51:27.683Z,27.31
2019-04-11T08:52:27.944Z,27.09
2019-04-11T08:53:28.808Z,26.84
2019-04-11T08:54:27.661Z,26.58
2019-04-11T08:55:27.638Z,26.36
2019-04-11T08:56:28.529Z,26.12
2019-04-11T08:57:27.616Z,25.88
2019-04-11T08:58:28.763Z,25.65
2019-04-11T08:59:27.596Z,25.54
2019-04-11T09:00:28.262Z,25.41
2019-04-11T09:01:27.794Z,25.26
2019-04-11T09:02:27.563Z,25.13
2019-04-11T09:03:27.553Z,24.96
2019-04-11T09:04:27.544Z,24.79
2019-04-11T09:05:27.533Z,24.66
2019-04-11T09:06:28.420Z,24.55
2019-04-11T09:07:27.624Z,24.42
2019-04-11T09:08:27.498Z,24.31
2019-04-11T09:09:27.601Z,24.27
2019-04-11T09:10:28.270Z,24.27
2019-04-11T09:11:28.719Z,24.19
2019-04-11T09:12:28.718Z,24.10
2019-04-11T09:13:27.446Z,24.04
2019-04-11T09:14:28.440Z,23.94
2019-04-11T09:15:28.642Z,23.82
2019-04-11T09:16:27.772Z,23.75
2019-04-11T09:17:28.243Z,23.70
2019-04-11T09:18:28.104Z,23.68
2019-04-11T09:19:27.382Z,23.65
2019-04-11T09:20:27.658Z,23.60
2019-04-11T09:21:28.531Z,23.55
2019-04-11T09:22:27.345Z,23.55
2019-04-11T09:23:27.923Z,23.44
2019-04-11T09:24:27.387Z,23.34
2019-04-11T09:25:28.645Z,23.29
2019-04-11T09:26:27.729Z,23.24
2019-04-11T09:27:27.290Z,23.12
2019-04-11T09:28:27.279Z,23.03
2019-04-11T09:29:28.362Z,23.00
2019-04-11T09:30:28.495Z,22.88
2019-04-11T09:31:27.591Z,22.75
2019-04-11T09:32:28.490Z,22.66
2019-04-11T09:33:27.232Z,22.56
2019-04-11T09:34:28.052Z,22.50
2019-04-11T09:35:27.202Z,22.48
2019-04-11T09:36:28.969Z,22.44
2019-04-11T09:37:27.461Z,22.00
2019-04-11T09:38:27.172Z,21.86
2019-04-11T09:39:27.156Z,21.82
2019-04-11T09:40:28.033Z,21.83
2019-04-11T09:41:28.184Z,21.82
2019-04-11T09:42:28.308Z,21.84
2019-04-11T09:43:28.209Z,21.95
2019-04-11T09:44:27.102Z,22.00
2019-04-11T09:45:27.757Z,22.07
2019-04-11T09:46:27.230Z,22.17
2019-04-11T09:47:28.254Z,22.23
2019-04-11T09:48:27.070Z,22.32
2019-04-11T09:49:27.165Z,22.37
2019-04-11T09:50:27.041Z,22.40
2019-04-11T09:51:29.215Z,22.42
2019-04-11T09:52:27.030Z,22.44
2019-04-11T09:53:28.186Z,22.43
2019-04-11T09:54:28.184Z,22.51
2019-04-11T09:55:26.981Z,22.40
2019-04-11T09:56:27.113Z,21.81
2019-04-11T09:57:26.963Z,21.22
2019-04-11T09:58:27.532Z,20.52
2019-04-11T09:59:27.248Z,19.85
2019-04-11T10:00:28.397Z,19.24
2019-04-11T10:01:26.916Z,18.62
2019-04-11T10:02:27.514Z,18.08
2019-04-11T10:03:27.872Z,17.71
2019-04-11T10:04:27.642Z,17.99
2019-04-11T10:05:26.872Z,18.43
2019-04-11T10:06:28.021Z,18.51
2019-04-11T10:07:28.115Z,18.25
2019-04-11T10:08:26.851Z,18.01
2019-04-11T10:09:28.140Z,17.68
2019-04-11T10:10:26.828Z,17.40
2019-04-11T10:11:28.139Z,17.13
2019-04-11T10:12:27.642Z,16.85
2019-04-11T10:13:26.970Z,16.59
2019-04-11T10:14:26.780Z,16.41
2019-04-11T10:15:27.223Z,16.26
2019-04-11T10:16:26.752Z,16.58
2019-04-11T10:17:26.977Z,16.95
2019-04-11T10:18:32.209Z,17.02
2019-04-11T10:19:27.837Z,17.39
2019-04-11T10:20:26.885Z,17.49
2019-04-11T10:21:26.697Z,17.48
2019-04-11T10:22:27.107Z,17.39
2019-04-11T10:23:27.066Z,17.84
2019-04-11T10:24:26.680Z,17.55
2019-04-11T10:25:28.325Z,17.29
2019-04-11T10:26:27.707Z,17.09
2019-04-11T10:27:26.800Z,16.98
2019-04-11T10:28:27.326Z,18.05
2019-04-11T10:29:29.833Z,18.80
2019-04-11T10:30:26.610Z,18.44
2019-04-11T10:31:26.587Z,18.36
2019-04-11T10:32:27.517Z,17.91
2019-04-11T10:33:26.680Z,17.70
2019-04-11T10:34:27.842Z,18.90
2019-04-11T10:35:26.544Z,18.39
2019-04-11T10:36:27.381Z,17.86
2019-04-11T10:37:27.556Z,17.56
2019-04-11T10:38:26.665Z,17.34
2019-04-11T10:39:27.149Z,17.11
2019-04-11T10:40:26.496Z,16.86
2019-04-11T10:41:26.477Z,16.63
2019-04-11T10:42:26.790Z,16.37
2019-04-11T10:43:26.695Z,16.13
2019-04-11T10:44:26.719Z,15.89
2019-04-11T10:45:26.837Z,15.68
2019-04-11T10:46:27.140Z,15.51
2019-04-11T10:47:27.065Z,15.36
2019-04-11T10:48:34.508Z,15.20
2019-04-11T10:49:28.405Z,15.06
2019-04-11T10:50:26.383Z,14.97
2019-04-11T10:51:26.470Z,14.87
2019-04-11T10:52:26.640Z,14.73
2019-04-11T10:53:26.979Z,14.62
2019-04-11T10:54:26.353Z,14.53
2019-04-11T10:55:27.369Z,14.48
2019-04-11T10:56:26.484Z,14.46
2019-04-11T10:57:26.305Z,14.48
2019-04-11T10:58:26.817Z,14.49
2019-04-11T10:59:27.814Z,14.54
2019-04-11T11:00:27.278Z,14.60
2019-04-11T11:01:26.710Z,14.69
2019-04-11T11:02:26.251Z,14.79
2019-04-11T11:03:27.351Z,14.90
2019-04-11T11:04:27.490Z,14.99
2019-04-11T11:05:26.340Z,15.08
2019-04-11T11:06:27.399Z,15.17
2019-04-11T11:07:26.744Z,15.23
2019-04-11T11:08:26.184Z,15.29
2019-04-11T11:09:26.321Z,15.27
2019-04-11T11:10:26.167Z,15.22
2019-04-11T11:11:26.176Z,15.17
2019-04-11T11:12:27.309Z,15.10
2019-04-11T11:13:26.130Z,14.99
2019-04-11T11:14:26.958Z,14.89
2019-04-11T11:15:27.359Z,14.80
2019-04-11T11:16:28.809Z,14.71
2019-04-11T11:17:47.137Z,14.61
2019-04-11T11:18:53.100Z,14.50
2019-04-11T11:19:43.656Z,14.42
2019-04-11T11:20:33.736Z,14.37
2019-04-11T11:21:30.594Z,14.33
2019-04-11T11:22:27.370Z,14.29
2019-04-11T11:23:26.863Z,14.26
2019-04-11T11:24:26.122Z,14.27
2019-04-11T11:25:26.743Z,14.26
2019-04-11T11:26:26.560Z,14.25
2019-04-11T11:27:26.562Z,14.24
2019-04-11T11:28:25.989Z,14.21
2019-04-11T11:29:26.622Z,14.19
2019-04-11T11:30:27.088Z,14.16
2019-04-11T11:31:25.935Z,14.16
2019-04-11T11:32:27.278Z,14.16
2019-04-11T11:33:26.604Z,14.15
2019-04-11T11:34:25.902Z,14.09
2019-04-11T11:35:29.420Z,14.07
2019-04-11T11:36:26.895Z,14.06
2019-04-11T11:37:25.903Z,14.05
2019-04-11T11:38:26.096Z,14.05
2019-04-11T11:39:26.900Z,14.03
2019-04-11T11:40:25.982Z,14.03
2019-04-11T11:41:25.824Z,14.03
2019-04-11T11:42:26.173Z,14.05
2019-04-11T11:43:25.802Z,14.09
2019-04-11T11:44:25.795Z,14.11
2019-04-11T11:45:25.780Z,14.17
2019-04-11T11:46:29.541Z,14.24
2019-04-11T11:47:27.849Z,14.34
2019-04-11T11:48:26.356Z,14.47
2019-04-11T11:49:41.475Z,14.58
2019-04-11T11:50:26.862Z,14.65
2019-04-11T11:51:29.225Z,14.72
2019-04-11T11:52:26.855Z,14.82
2019-04-11T11:53:27.314Z,14.92
2019-04-11T11:54:25.730Z,14.96
2019-04-11T11:55:25.700Z,14.99
2019-04-11T11:56:26.260Z,14.96
2019-04-11T11:57:26.647Z,14.95
2019-04-11T11:58:25.792Z,14.94
2019-04-11T11:59:25.640Z,14.95
2019-04-11T12:00:25.618Z,14.97
2019-04-11T12:01:25.608Z,14.99
2019-04-11T12:02:26.391Z,14.96
2019-04-11T12:03:28.382Z,14.98
2019-04-11T12:04:26.171Z,14.97
2019-04-11T12:05:26.772Z,14.97
2019-04-11T12:06:25.554Z,15.00
2019-04-11T12:07:25.558Z,15.05
2019-04-11T12:08:25.532Z,15.09
2019-04-11T12:09:26.598Z,15.11
2019-04-11T12:10:26.118Z,15.13
2019-04-11T12:11:26.314Z,15.16
2019-04-11T12:12:25.489Z,15.20
2019-04-11T12:13:26.221Z,15.19
2019-04-11T12:14:25.471Z,15.17
2019-04-11T12:15:27.242Z,15.14
2019-04-11T12:16:25.938Z,15.14
2019-04-11T12:17:25.445Z,15.11
2019-04-11T12:18:26.727Z,15.12
2019-04-11T12:19:26.766Z,15.11
2019-04-11T12:20:25.402Z,15.12
2019-04-11T12:21:28.060Z,15.15
2019-04-11T12:22:25.380Z,15.18
2019-04-11T12:23:25.971Z,15.20
2019-04-11T12:24:25.391Z,15.21
2019-04-11T12:25:25.359Z,15.21
2019-04-11T12:26:28.760Z,15.22
2019-04-11T12:27:26.806Z,15.25
2019-04-11T12:28:25.671Z,15.32
2019-04-11T12:29:25.333Z,15.34
2019-04-11T12:30:29.740Z,15.33
2019-04-11T12:31:26.285Z,15.37
2019-04-11T12:32:25.335Z,15.39
2019-04-11T12:33:25.707Z,15.44
2019-04-11T12:34:26.091Z,15.47
2019-04-11T12:35:26.304Z,15.48
2019-04-11T12:36:26.365Z,15.47
2019-04-11T12:37:25.365Z,15.50
2019-04-11T12:38:25.275Z,15.55
2019-04-11T12:39:25.425Z,15.56
2019-04-11T12:40:25.188Z,15.60
2019-04-11T12:41:25.187Z,15.62
2019-04-11T12:42:25.166Z,15.60
2019-04-11T12:43:25.155Z,15.58
2019-04-11T12:44:26.744Z,15.58
2019-04-11T12:45:25.133Z,15.58
2019-04-11T12:46:29.778Z,15.59
2019-04-11T12:47:26.121Z,15.62
2019-04-11T12:48:25.165Z,15.61
2019-04-11T12:49:25.093Z,15.61
2019-04-11T12:50:25.096Z,15.59
2019-04-11T12:51:25.067Z,15.60
2019-04-11T12:52:25.058Z,15.59
2019-04-11T12:53:25.058Z,15.58
2019-04-11T12:54:25.036Z,15.55
2019-04-11T12:55:25.024Z,15.54
2019-04-11T12:56:25.016Z,15.53
2019-04-11T12:57:25.003Z,15.51
2019-04-11T12:58:24.992Z,15.54
2019-04-11T12:59:24.992Z,15.58
2019-04-11T13:00:24.970Z,15.61
2019-04-11T13:01:24.962Z,15.64
2019-04-11T13:02:24.950Z,15.66
2019-04-11T13:03:24.939Z,15.64
2019-04-11T13:04:24.929Z,15.63
2019-04-11T13:05:24.933Z,15.65
2019-04-11T13:06:34.815Z,15.65
2019-04-11T13:07:25.895Z,15.68